Latest Weather Observations for Moruya Airport

IDN60801

Issued at 6:23 pm EST Saturday 9 May 2026 (issued every 10 minutes, with the page automatically refreshed every 10 minutes)

About weather observations | Map of weather stations | Latest weather observations for NSW | Other Formats
Station Details ID: 069148 Name: MORUYA AIRPORT AWS Lat: -35.90 Lon: 150.14 Height: 4.0 m
Data from the previous 72 hours. | See also: Recent months at Moruya Airport
Date/Time
EST
Temp
°C
App
Temp
°C
Dew
Point
°C
Rel
Hum
%
Delta-T
°C
Wind Press
QNH
hPa
Press
MSL
hPa
Rain since
9am
mm
Dir  Spd
km/h
Gust
km/h
Spd
kts
Gust
kts
09/06:00pm 12.5 11.0 8.4 76 2.0 NNW 6 7 3 4 1024.9 1024.9 0.0
09/05:30pm 13.8 12.1 8.4 70 2.7 N 7 7 4 4 1024.4 1024.4 0.0
09/05:00pm 15.5 14.0 8.5 63 3.5 NNE 6 7 3 4 1024.0 1024.0 0.0
09/04:30pm 17.8 15.6 7.8 52 5.1 NNE 9 11 5 6 1023.9 1023.9 0.0
09/04:00pm 18.6 16.4 8.0 50 5.4 NNE 9 15 5 8 1023.8 1023.8 0.0
09/03:30pm 18.8 16.2 7.6 48 5.7 NE 11 15 6 8 1023.8 1023.8 0.0
09/03:00pm 19.1 16.6 6.6 44 6.2 ENE 9 13 5 7 1023.8 1023.8 0.0
09/02:30pm 19.1 16.4 7.5 47 5.9 ENE 11 15 6 8 1023.9 1023.9 0.0
09/02:00pm 18.9 16.1 7.0 46 6.0 ENE 11 13 6 7 1023.7 1023.7 0.0
09/01:30pm 18.6 15.8 6.8 46 5.9 ENE 11 15 6 8 1023.9 1023.9 0.0
09/01:00pm 18.7 15.6 7.2 47 5.8 E 13 17 7 9 1024.1 1024.1 0.0
09/12:30pm 18.4 15.2 6.9 47 5.8 E 13 17 7 9 1024.4 1024.4 0.0
09/12:00pm 18.3 14.7 6.8 47 5.7 ESE 15 20 8 11 1024.9 1024.9 0.0
09/11:30am 18.1 14.8 6.3 46 5.8 ESE 13 17 7 9 1025.3 1025.3 0.0
09/11:00am 18.5 16.4 6.7 46 5.9 S 7 11 4 6 1025.5 1025.5 0.0
09/10:30am 17.5 15.0 6.4 48 5.5 SSW 9 15 5 8 1025.7 1025.7 0.0
09/10:00am 16.7 14.6 6.5 51 5.0 WSW 7 13 4 7 1025.7 1025.7 0.0
09/09:30am 15.6 13.1 6.6 55 4.4 SW 9 13 5 7 1025.6 1025.6 0.0
09/09:00am 14.0 12.0 7.3 64 3.3 SW 7 11 4 6 1025.6 1025.6 0.0
09/08:30am 11.6 9.2 6.9 73 2.2 SW 9 13 5 7 1025.4 1025.4 0.0
09/08:00am 10.1 8.5 8.2 88 0.9 WSW 6 7 3 4 1025.1 1025.1 0.0
09/07:30am 8.5 6.1 7.0 90 0.7 SW 9 13 5 7 1024.8 1024.8 0.0
09/07:00am 6.7 4.2 5.0 89 0.7 W 7 9 4 5 1024.5 1024.5 0.0
09/06:30am 7.1 4.9 5.4 89 0.8 WSW 6 7 3 4 1024.2 1024.2 0.0
09/06:00am 6.7 4.2 4.7 87 0.9 WSW 7 9 4 5 1023.8 1023.8 0.0
09/05:30am 7.9 5.2 5.5 85 1.1 WSW 9 13 5 7 1023.3 1023.3 0.0
09/05:00am 7.5 5.4 5.8 89 0.8 WSW 6 9 3 5 1023.1 1023.1 0.0
09/04:30am 7.5 5.7 5.6 88 0.8 WSW 4 6 2 3 1022.8 1022.8 0.0
09/04:00am 7.9 5.3 6.0 88 0.9 SW 9 9 5 5 1022.5 1022.5 0.0
09/03:30am 8.1 7.1 5.6 84 1.1 CALM 0 0 0 0 1022.4 1022.4 0.0
09/03:00am 8.8 6.8 6.4 85 1.1 WSW 6 7 3 4 1022.5 1022.5 0.0
09/02:30am 8.7 7.8 6.2 84 1.1 CALM 0 6 0 3 1022.6 1022.6 0.0
09/02:00am 9.7 7.9 7.0 83 1.3 WSW 6 9 3 5 1022.5 1022.5 0.0
09/01:30am 9.6 7.5 6.7 82 1.4 WSW 7 11 4 6 1022.5 1022.5 0.0
09/01:00am 10.3 8.6 7.4 82 1.4 WSW 6 9 3 5 1022.3 1022.3 0.0
09/12:30am 10.5 8.8 7.6 82 1.4 W 6 9 3 5 1022.0 1022.0 0.0
09/12:00am 10.7 8.8 7.4 80 1.6 SSW 7 11 4 6 1021.8 1021.8 0.0
 
Date/Time
EST
Temp
°C
App
Temp
°C
Dew
Point
°C
Rel
Hum
%
Delta-T
°C
Wind Press
QNH
hPa
Press
MSL
hPa
Rain since
9am
mm
Dir  Spd
km/h
Gust
km/h
Spd
kts
Gust
kts
08/11:30pm 12.1 11.6 8.0 76 2.0 CALM 0 9 0 5 1021.9 1021.9 0.0
08/11:00pm 13.2 11.1 8.3 72 2.4 SSW 9 13 5 7 1021.7 1021.7 0.0
08/10:30pm 14.0 12.0 8.6 70 2.7 SSW 9 11 5 6 1021.6 1021.6 0.0
08/10:00pm 14.8 13.7 8.5 66 3.2 SSW 4 7 2 4 1021.6 1021.6 0.0
08/09:30pm 15.8 14.0 9.5 66 3.3 S 9 15 5 8 1021.3 1021.3 0.0
08/09:00pm 16.2 12.9 9.6 65 3.4 S 17 24 9 13 1021.0 1021.0 0.0
08/08:30pm 16.5 12.6 8.7 60 4.0 S 19 22 10 12 1020.8 1020.8 0.0
08/08:00pm 17.0 14.2 6.8 51 5.0 SSW 11 19 6 10 1020.4 1020.4 0.0
08/07:30pm 17.1 13.8 6.6 50 5.2 SSW 13 17 7 9 1020.2 1020.2 0.0
08/07:00pm 17.3 14.3 6.2 48 5.4 SSW 11 15 6 8 1019.7 1019.7 0.0
08/06:30pm 17.5 14.8 5.8 46 5.7 S 9 13 5 7 1019.3 1019.3 0.0
08/06:00pm 17.6 14.9 5.5 45 5.8 S 9 13 5 7 1018.6 1018.6 0.0
08/05:30pm 18.1 14.9 5.0 42 6.3 SSW 11 17 6 9 1018.0 1018.0 0.0
08/05:00pm 18.7 13.7 4.5 39 6.8 SSW 20 33 11 18 1017.4 1017.4 0.0
08/04:30pm 19.0 12.7 4.0 37 7.1 SSW 26 41 14 22 1016.8 1016.8 0.0
08/04:00pm 19.7 14.2 4.2 36 7.4 SSW 22 33 12 18 1016.4 1016.4 0.0
08/03:30pm 20.1 14.2 3.8 34 7.8 SSW 24 35 13 19 1015.9 1015.9 0.0
08/03:00pm 20.4 15.2 3.6 33 8.0 SSW 20 37 11 20 1015.5 1015.5 0.0
08/02:30pm 22.2 16.9 2.8 28 9.2 SW 20 30 11 16 1014.7 1014.7 0.0
08/02:00pm 22.2 15.3 2.8 28 9.2 SW 28 39 15 21 1014.3 1014.3 0.0
08/01:30pm 22.3 14.6 2.4 27 9.4 SW 32 44 17 24 1014.4 1014.4 0.0
08/01:00pm 21.8 13.9 2.5 28 9.1 SW 33 52 18 28 1014.4 1014.4 0.0
08/12:30pm 21.9 14.6 2.6 28 9.1 SW 30 48 16 26 1014.6 1014.6 0.0
08/12:22pm 21.6 14.2 1.8 27 9.2 WSW 30 48 16 26 1014.6 1014.6 0.0
08/12:00pm 22.0 16.3 2.7 28 9.1 SW 22 33 12 18 1014.8 1014.8 0.0
08/11:30am 21.3 15.2 2.6 29 8.8 SW 24 39 13 21 1014.9 1014.9 0.0
08/11:00am 20.9 14.6 3.6 32 8.3 WSW 26 37 14 20 1014.8 1014.8 0.0
08/10:33am 20.3 13.5 3.1 32 8.1 SW 28 46 15 25 1014.9 1014.9 0.0
08/10:30am 20.1 13.0 3.3 33 7.9 SW 30 46 16 25 1014.9 1014.9 0.0
08/10:13am 19.8 13.0 3.1 33 7.8 WSW 28 50 15 27 1015.0 1015.0 0.0
08/10:00am 19.5 14.4 3.2 34 7.6 WSW 19 33 10 18 1015.3 1015.3 0.0
08/09:30am 18.2 14.7 3.7 38 6.8 WNW 11 19 6 10 1015.3 1015.3 0.0
08/09:00am 16.6 13.1 3.7 42 6.0 NNW 11 15 6 8 1015.5 1015.5 0.2
08/08:30am 15.4 11.8 3.2 44 5.5 NNW 11 20 6 11 1015.4 1015.4 0.2
08/08:00am 14.4 11.6 2.9 46 5.1 NNW 7 15 4 8 1015.2 1015.2 0.2
08/07:30am 13.3 10.0 2.5 48 4.7 NW 9 15 5 8 1014.7 1014.7 0.2
08/07:00am 12.5 8.4 2.1 49 4.5 WNW 13 22 7 12 1014.3 1014.3 0.2
08/06:30am 12.1 8.0 2.3 51 4.2 NW 13 20 7 11 1014.3 1014.3 0.2
08/06:00am 9.0 5.5 1.4 59 3.1 NW 9 13 5 7 1014.2 1014.2 0.2
08/05:30am 10.7 7.6 1.5 53 3.9 WNW 7 11 4 6 1014.0 1014.0 0.2
08/05:00am 11.4 8.3 1.1 49 4.3 NW 7 13 4 7 1014.2 1014.2 0.2
08/04:30am 10.9 7.7 0.9 50 4.1 NW 7 15 4 8 1014.3 1014.3 0.2
08/04:00am 11.4 7.1 0.8 48 4.4 WNW 13 20 7 11 1014.5 1014.5 0.2
08/03:30am 8.7 4.9 1.6 61 2.9 WNW 11 19 6 10 1014.5 1014.5 0.2
08/03:00am 4.1 1.0 0.4 77 1.4 WNW 6 9 3 5 1015.1 1015.1 0.2
08/02:30am 5.4 3.0 1.9 78 1.4 NW 4 7 2 4 1015.3 1015.3 0.2
08/02:00am 4.4 1.2 0.9 78 1.3 NW 7 9 4 5 1015.8 1015.8 0.2
08/01:30am 4.3 1.7 0.8 78 1.3 NW 4 6 2 3 1016.3 1016.3 0.2
08/01:00am 4.3 1.1 0.5 76 1.4 NW 7 9 4 5 1016.6 1016.6 0.2
08/12:30am 5.6 2.5 0.4 69 2.0 NW 6 9 3 5 1016.7 1016.7 0.2
08/12:00am 6.7 3.0 0.2 63 2.5 NW 9 13 5 7 1017.0 1017.0 0.2
 
Date/Time
EST
Temp
°C
App
Temp
°C
Dew
Point
°C
Rel
Hum
%
Delta-T
°C
Wind Press
QNH
hPa
Press
MSL
hPa
Rain since
9am
mm
Dir  Spd
km/h
Gust
km/h
Spd
kts
Gust
kts
07/11:30pm 9.3 5.9 -0.3 51 3.8 W 7 9 4 5 1017.5 1017.5 0.2
07/11:00pm 11.0 6.5 -0.5 45 4.6 WSW 13 17 7 9 1017.6 1017.6 0.2
07/10:30pm 10.7 6.2 -0.4 46 4.4 WSW 13 17 7 9 1018.2 1018.2 0.2
07/10:00pm 11.1 6.5 -0.7 44 4.7 WSW 13 20 7 11 1018.4 1018.4 0.2
07/09:30pm 10.6 6.7 -1.8 42 4.8 WSW 9 13 5 7 1018.4 1018.4 0.2
07/09:00pm 11.0 6.6 -2.8 38 5.2 WSW 11 17 6 9 1018.0 1018.0 0.2
07/08:30pm 12.0 5.4 -3.0 35 5.7 WSW 22 32 12 17 1017.9 1017.9 0.2
07/08:00pm 11.9 5.8 -3.8 33 5.9 WSW 19 30 10 16 1017.7 1017.7 0.2
07/07:30pm 12.3 6.2 -4.3 31 6.2 WSW 19 32 10 17 1017.6 1017.6 0.2
07/07:00pm 12.2 6.6 -3.2 34 5.9 WSW 17 28 9 15 1017.2 1017.2 0.2
07/06:30pm 12.4 6.2 -3.4 33 6.0 WSW 20 32 11 17 1017.0 1017.0 0.2
07/06:00pm 12.7 6.0 -4.4 30 6.4 WSW 22 35 12 19 1016.8 1016.8 0.2
07/05:30pm 13.0 6.7 -3.7 31 6.4 WSW 20 35 11 19 1016.2 1016.2 0.2
07/05:00pm 13.2 7.2 -2.7 33 6.2 WSW 19 30 10 16 1015.7 1015.7 0.2
07/04:30pm 14.0 7.1 -2.4 32 6.5 SW 24 30 13 16 1015.4 1015.4 0.2
07/04:00pm 14.7 7.4 -2.7 30 6.9 SW 26 37 14 20 1015.3 1015.3 0.2
07/03:30pm 14.9 7.7 -2.1 31 6.8 WSW 26 39 14 21 1015.1 1015.1 0.2
07/03:00pm 14.3 6.8 -1.7 33 6.5 SW 28 44 15 24 1014.9 1014.9 0.2
07/02:55pm 14.5 7.0 -1.2 34 6.4 SW 28 50 15 27 1015.0 1015.0 0.2
07/02:30pm 15.0 8.4 -0.3 35 6.4 SW 24 33 13 18 1014.7 1014.7 0.2
07/02:00pm 15.1 7.2 -1.5 32 6.8 SW 30 43 16 23 1014.2 1014.2 0.2
07/01:30pm 14.4 7.7 -1.2 34 6.4 WSW 24 39 13 21 1014.2 1014.2 0.2
07/01:00pm 15.2 8.1 -1.4 32 6.8 WSW 26 44 14 24 1014.2 1014.2 0.2
07/12:43pm 15.2 7.4 -0.9 33 6.7 WSW 30 48 16 26 1014.1 1014.1 0.2
07/12:30pm 14.8 6.3 -1.7 32 6.7 SW 33 46 18 25 1014.3 1014.3 0.2
07/12:01pm 15.2 7.9 -0.1 35 6.5 SW 28 46 15 25 1014.3 1014.3 0.0
07/12:00pm 15.1 7.3 -0.6 34 6.5 SW 30 46 16 25 1014.2 1014.2 0.0
07/11:30am 14.6 8.8 -0.3 36 6.2 SW 20 33 11 18 1014.9 1014.9 0.0
07/11:00am 14.2 7.2 -0.3 37 6.0 SW 26 41 14 22 1014.5 1014.5 0.0
07/10:30am 14.3 8.7 0.2 38 5.9 SW 19 26 10 14 1014.1 1014.1 0.0
07/10:00am 13.3 10.0 0.3 41 5.4 W 7 20 4 11 1014.3 1014.3 0.0
07/09:30am 11.1 8.3 3.2 58 3.5 WSW 7 11 4 6 1014.4 1014.4 0.0
07/09:00am 9.5 5.0 4.1 69 2.4 WSW 17 24 9 13 1014.5 1014.5 0.4
07/08:30am 8.5 4.3 5.8 83 1.2 SSW 17 22 9 12 1014.2 1014.2 0.4
07/08:00am 9.0 3.3 6.6 85 1.1 SW 26 39 14 21 1013.5 1013.5 0.2
07/07:39am 11.2 5.1 6.5 73 2.2 SSW 28 46 15 25 1013.0 1013.0 0.0
07/07:30am 13.4 10.0 5.8 60 3.6 NE 13 33 7 18 1012.4 1012.4 0.0
07/07:00am 12.8 10.5 5.7 62 3.3 N 7 9 4 5 1011.3 1011.3 0.0
07/06:30am 13.1 10.3 5.3 59 3.6 W 9 13 5 7 1011.4 1011.4 0.0
07/06:00am 11.4 9.1 4.8 64 3.0 WNW 6 9 3 5 1011.2 1011.2 0.0
07/05:30am 10.1 8.7 3.6 64 2.8 CALM 0 6 0 3 1011.2 1011.2 0.0
07/05:00am 10.9 8.2 2.7 57 3.5 NNW 6 9 3 5 1011.3 1011.3 0.0
07/04:30am 13.2 10.1 3.6 52 4.3 NW 9 15 5 8 1011.2 1011.2 0.0
07/04:00am 13.2 10.2 4.1 54 4.1 WNW 9 15 5 8 1011.3 1011.3 0.0
07/03:30am 13.6 10.2 4.2 53 4.3 WNW 11 17 6 9 1011.4 1011.4 0.0
07/03:00am 13.6 10.7 4.5 54 4.2 WNW 9 17 5 9 1011.4 1011.4 0.0
07/02:30am 14.0 10.3 4.6 53 4.3 WNW 13 19 7 10 1011.8 1011.8 0.0
07/02:00am 14.5 9.8 5.0 53 4.4 WNW 19 28 10 15 1011.8 1011.8 0.0
07/01:30am 14.5 10.9 5.0 53 4.4 WNW 13 24 7 13 1011.8 1011.8 0.0
07/01:00am 14.7 11.2 5.5 54 4.4 WNW 13 20 7 11 1011.7 1011.7 0.0
07/12:30am 14.2 11.5 5.6 56 4.1 NNW 9 15 5 8 1012.0 1012.0 0.0
07/12:00am 14.7 12.0 5.8 55 4.2 WNW 9 15 5 8 1012.3 1012.3 0.0
 
Date/Time
EST
Temp
°C
App
Temp
°C
Dew
Point
°C
Rel
Hum
%
Delta-T
°C
Wind Press
QNH
hPa
Press
MSL
hPa
Rain since
9am
mm
Dir  Spd
km/h
Gust
km/h
Spd
kts
Gust
kts
06/11:30pm 15.0 12.3 5.8 54 4.4 WNW 9 13 5 7 1012.3 1012.3 0.0
06/11:00pm 15.7 12.3 5.9 52 4.7 WNW 13 24 7 13 1012.4 1012.4 0.0
06/10:30pm 15.4 12.8 6.2 54 4.4 NW 9 15 5 8 1012.7 1012.7 0.0
06/10:00pm 15.8 12.6 6.8 55 4.4 WNW 13 24 7 13 1013.2 1013.2 0.0
06/09:30pm 12.2 10.5 7.7 74 2.2 N 6 9 3 5 1013.3 1013.3 0.0
06/09:00pm 11.4 9.7 8.3 81 1.5 N 7 9 4 5 1013.6 1013.6 0.0
06/08:30pm 12.9 11.4 9.0 77 2.0 N 7 11 4 6 1013.8 1013.8 0.0
06/08:00pm 13.1 12.5 10.5 84 1.4 NNW 4 11 2 6 1013.9 1013.9 0.0
06/07:30pm 14.2 12.8 12.2 88 1.1 N 11 13 6 7 1014.0 1014.0 0.0
06/07:00pm 14.3 13.0 11.3 82 1.6 N 9 13 5 7 1014.3 1014.3 0.0
06/06:30pm 16.0 14.6 12.2 78 2.1 N 11 15 6 8 1014.4 1014.4 0.0

Other formats

Comma delimited format used in spreadsheet applications
http://www.bom.gov.au/fwo/IDN60801/IDN60801.95937.axf

JavaScript Object Notation format (JSON) in row-major order
http://www.bom.gov.au/fwo/IDN60801/IDN60801.95937.json

Data quality

Most of these data are generated automatically and are frequently updated. Quality checks on data are not normally performed. It is possible for incorrect values to appear. Refer to information at About Latest Weather Observations and please check the disclaimer before using these data.